SBOSBO MNL / RPLL
Speedbird OnlineSpeedbird Online MNL / RPLL

Ninoy Aquino International Airport
10:24 27.4°C

Location Manila, Philippines
Latitude: 14.5086
Longitude: 121.019997
Web Wikipedia
Altitude 23 Meter / 75 Feet
Distance 10,731 KM / 6,668 Miles
from London.
Time Zone UTC +8 hours (Asia/Manila)
Codes IATA: MNL
ICAO: RPLL
Currency £1 equals PHP 67.44
Runways
RunwayLength (m)Surface
063737Concrete
132258Concrete
243737Concrete
312258Concrete
Radio
TypeDescriptionFrequency
A/DMANILA APP119.7
ACCMANILA CON128.3
ATISMANILA ATIS126.4
CLDCLNC DEL125.1
FSSMANILA RDO544.75
GNDGND121.9
RMPRAMP 1121.7
TWRMANILA TWR118.1
Live ATC
METAR RPLL 270200Z 26006KT 220V300 9999 SCT025 BKN100 27/21 Q1012 NOSIG RMK A2988
TAF TAF RPLL 262300Z 2700/2806 11007KT 9999 FEW025 BKN100 TX30/2706Z TN25/2721Z TEMPO 2700/2706 10009KT SCT025 BKN090 TEMPO 2706/2712 11010KT 7000 -SHRA SCT023 BKN090
Weather As Of 27 Jan 2023 10:24
Description Broken clouds
Wind 11 km/h from West (260°)
Cloud Cover 75%
Precipitation Rain: none, Snow: none
Sunrise 06:24
Sunset 17:52
Lounges Club Manila Lounge, Departure Area, Terminal 1
Japan Airlines Sakura Lounge -Temporarily Closed, Terminal 1
Cathay Pacific Lounge (Temporarily Closed), Terminal 3
PAGSS Lounge, Terminal 3



Support Speedbird Online

© 2017-2023 Speedbird Online